臺北終端管制區 - 桃園北區雷達席

SPECI RCTP 290655Z 09012KT 9999 FEW015 FEW020CB BKN030 BKN200 32/25 Q0999 RETS WS R05L NOSIG RMK R05 CB E-SE A2952=

站台狀態:Offline
最後更新:2021-07-29 15:00:01